Airfield :
LOGIN :

Register | Disclaimer

   EN    FR    IT 

 










Legend :    VFR   Marginal VFR   IFR   Intensive IFR   Very Intensive IFR
Visi :
Ceiling :
>= 8 km
>= 3000ft
5 to 8 km
1000 to 3000 ft
1500m to 5 km
500 to 1000 ft
800 to 1500m
200 to 500 ft
< 800m
< 200 ft
Symbols :   Thunderstorms  Fog  Heavy snow  Heavy precipitations  Wind > 20 kt
SIGMETs :     Misc.  Thunderstorms  Icing  Turbulence  Mountain Waves  Volcanic Ashes






- Airport Elevation : 197 ft
- IATA code : XOG


LFMO - Orange

CURRENT METAR :
  • 021200Z AUTO 36005KT 330V030 9999 FEW034/// OVC050/// ///TCU 07/05 Q1016 BECMG BKN060

EXPIRED METARs :
  • 021130Z AUTO 34004KT 9999 BKN039/// OVC049/// ///TCU 07/05 Q1017 BECMG BKN060
  • 021100Z AUTO 33006KT 9999 -RA OVC037/// ///TCU 07/05 Q1017 BECMG BKN060
  • 021030Z AUTO 34005KT 280V010 9999 -RA BKN041 OVC052 07/04 Q1017 NOSIG
  • 021000Z AUTO 35003KT 330V030 9999 FEW039 OVC062 07/04 Q1018 NOSIG
  • 020930Z AUTO 03006KT 9999 BKN042/// BKN074/// OVC090/// ///TCU 07/04 Q1017 BECMG BKN060

TAF TAF LFMO
Valid from the 02 at 09:00 until the 03 at 09:00 UTC


020800Z 0209/0309 36010KT 9999 BKN060 TX10/0210Z TN04/0303Z
PROB40
TEMPO 0300/0305 4000 BR
BECMG 0305/0307 4000 RA



MET'MAP, your aeronautical weather chart ! - Copyright ORBIFLY December 2007 - Disclaimer

ORBIFLY MET'MAP TEAM :

Programming & Development : Alexandra Zaïnal
Original concept : Baudouin d'Aumeries
Technical & hardware support : Manuel Goepfert
Assistance : Marc-Olivier Méhu




SOURCES & CREDITS :

   NOAA